createdAt,value
2022-10-18T00:00:18.222Z,21.00
2022-10-18T00:01:41.070Z,21.00
2022-10-18T00:02:43.987Z,21.00
2022-10-18T00:03:46.984Z,20.99
2022-10-18T00:04:50.414Z,20.99
2022-10-18T00:05:53.493Z,20.99
2022-10-18T00:06:56.408Z,20.98
2022-10-18T00:07:59.543Z,20.99
2022-10-18T00:09:02.317Z,21.00
2022-10-18T00:10:05.547Z,21.00
2022-10-18T00:11:08.570Z,21.00
2022-10-18T00:12:11.374Z,21.01
2022-10-18T00:13:14.687Z,21.01
2022-10-18T00:14:17.465Z,21.02
2022-10-18T00:15:20.746Z,21.02
2022-10-18T00:16:23.716Z,21.02
2022-10-18T00:17:26.606Z,21.02
2022-10-18T00:18:29.981Z,21.00
2022-10-18T00:19:32.753Z,21.00
2022-10-18T00:20:35.675Z,21.00
2022-10-18T00:21:38.610Z,21.00
2022-10-18T00:22:41.899Z,21.00
2022-10-18T00:23:45.114Z,20.99
2022-10-18T00:24:47.950Z,20.99
2022-10-18T00:25:58.303Z,20.96
2022-10-18T00:27:01.087Z,20.97
2022-10-18T00:28:04.078Z,20.97
2022-10-18T00:29:07.292Z,20.95
2022-10-18T00:30:10.371Z,20.92
2022-10-18T00:31:18.106Z,20.93
2022-10-18T00:32:20.937Z,20.91
2022-10-18T00:33:23.864Z,20.91
2022-10-18T00:34:26.656Z,20.91
2022-10-18T00:35:29.465Z,20.90
2022-10-18T00:36:34.400Z,20.89
2022-10-18T00:37:37.242Z,20.88
2022-10-18T00:38:40.473Z,20.86
2022-10-18T00:39:43.669Z,20.86
2022-10-18T00:40:46.473Z,20.85
2022-10-18T00:41:49.556Z,20.82
2022-10-18T00:42:52.539Z,20.81
2022-10-18T00:44:04.563Z,20.80
2022-10-18T00:45:27.980Z,20.79
2022-10-18T00:46:34.930Z,20.76
2022-10-18T00:47:38.544Z,20.74
2022-10-18T00:48:41.475Z,20.70
2022-10-18T00:49:46.322Z,20.67
2022-10-18T00:50:50.829Z,20.68
2022-10-18T00:52:01.078Z,20.67
2022-10-18T00:53:06.245Z,20.63
2022-10-18T00:54:09.051Z,20.61
2022-10-18T00:55:11.982Z,20.60
2022-10-18T00:56:14.951Z,20.60
2022-10-18T00:57:18.073Z,20.57
2022-10-18T00:58:20.971Z,20.55
2022-10-18T00:59:24.364Z,20.54
2022-10-18T01:00:27.131Z,20.53
2022-10-18T01:01:30.082Z,20.52
2022-10-18T01:02:33.436Z,20.51
2022-10-18T01:03:37.217Z,20.50
2022-10-18T01:04:40.168Z,20.49
2022-10-18T01:05:44.806Z,20.46
2022-10-18T01:08:18.617Z,20.40
2022-10-18T01:09:28.505Z,20.39
2022-10-18T01:10:38.036Z,20.38
2022-10-18T01:11:50.369Z,20.37
2022-10-18T01:13:02.131Z,20.35
2022-10-18T01:14:08.043Z,20.35
2022-10-18T01:15:31.155Z,20.34
2022-10-18T01:16:46.663Z,20.33
2022-10-18T01:17:49.402Z,20.33
2022-10-18T01:18:58.588Z,20.32
2022-10-18T01:20:17.720Z,20.30
2022-10-18T01:21:23.282Z,20.30
2022-10-18T01:22:34.997Z,20.29
2022-10-18T01:23:40.603Z,20.28
2022-10-18T01:24:46.434Z,20.27
2022-10-18T01:25:55.907Z,20.27
2022-10-18T01:27:11.056Z,20.25
2022-10-18T01:28:29.588Z,20.25
2022-10-18T01:29:32.403Z,20.24
2022-10-18T01:30:39.993Z,20.22
2022-10-18T01:31:47.912Z,20.22
2022-10-18T01:32:52.759Z,20.23
2022-10-18T01:35:12.252Z,20.21
2022-10-18T01:36:15.130Z,20.20
2022-10-18T01:37:20.255Z,20.18
2022-10-18T01:38:24.887Z,20.18
2022-10-18T01:39:34.315Z,20.18
2022-10-18T01:40:38.555Z,20.14
2022-10-18T01:41:42.495Z,20.12
2022-10-18T01:42:46.414Z,20.10
2022-10-18T01:43:51.124Z,20.08
2022-10-18T01:44:54.512Z,20.07
2022-10-18T01:45:58.567Z,20.05
2022-10-18T01:47:01.429Z,20.01
2022-10-18T01:48:04.664Z,20.01
2022-10-18T01:49:07.735Z,20.00
2022-10-18T01:50:10.602Z,19.98
2022-10-18T01:51:13.591Z,19.96
2022-10-18T01:52:16.489Z,19.95
2022-10-18T01:53:27.007Z,19.93
2022-10-18T01:54:37.845Z,19.92
2022-10-18T01:55:48.586Z,19.91
2022-10-18T01:56:54.410Z,19.90
2022-10-18T01:58:18.074Z,19.90
2022-10-18T01:59:29.881Z,19.87
2022-10-18T02:00:38.164Z,19.84
2022-10-18T02:01:46.846Z,19.83
2022-10-18T02:03:02.208Z,19.80
2022-10-18T02:04:13.660Z,19.78
2022-10-18T02:05:24.735Z,19.78
2022-10-18T02:06:30.007Z,19.78
2022-10-18T02:07:36.596Z,19.78
2022-10-18T02:08:58.258Z,19.78
2022-10-18T02:10:04.231Z,19.77
2022-10-18T02:11:08.901Z,19.77
2022-10-18T02:12:14.408Z,19.77
2022-10-18T02:13:19.183Z,19.76
2022-10-18T02:14:23.999Z,19.75
2022-10-18T02:15:31.148Z,19.73
2022-10-18T02:16:37.812Z,19.71
2022-10-18T02:17:41.318Z,19.71
2022-10-18T02:18:50.349Z,19.71
2022-10-18T02:19:55.763Z,19.68
2022-10-18T02:20:58.929Z,19.66
2022-10-18T02:22:02.043Z,19.66
2022-10-18T02:23:07.324Z,19.65
2022-10-18T02:24:13.508Z,19.63
2022-10-18T02:25:21.527Z,19.63
2022-10-18T02:26:24.751Z,19.63
2022-10-18T02:27:27.614Z,19.60
2022-10-18T02:28:31.024Z,19.60
2022-10-18T02:29:34.963Z,19.58
2022-10-18T02:32:50.321Z,19.57
2022-10-18T02:33:56.657Z,19.55
2022-10-18T02:35:06.497Z,19.53
2022-10-18T02:36:27.800Z,19.53
2022-10-18T02:37:33.321Z,19.51
2022-10-18T02:38:38.458Z,19.50
2022-10-18T02:39:46.833Z,19.50
2022-10-18T02:40:49.920Z,19.50
2022-10-18T02:41:53.910Z,19.49
2022-10-18T02:42:57.569Z,19.49
2022-10-18T02:44:00.465Z,19.49
2022-10-18T02:45:04.698Z,19.48
2022-10-18T02:46:07.549Z,19.45
2022-10-18T02:47:11.309Z,19.44
2022-10-18T02:48:14.106Z,19.44
2022-10-18T02:49:17.083Z,19.41
2022-10-18T02:50:20.218Z,19.39
2022-10-18T02:51:23.660Z,19.39
2022-10-18T02:52:26.446Z,19.39
2022-10-18T02:53:29.336Z,19.38
2022-10-18T02:54:32.196Z,19.37
2022-10-18T02:55:35.123Z,19.36
2022-10-18T02:56:37.913Z,19.35
2022-10-18T02:57:40.753Z,19.35
2022-10-18T02:58:43.581Z,19.35
2022-10-18T02:59:46.335Z,19.35
2022-10-18T03:00:52.104Z,19.36
2022-10-18T03:01:54.924Z,19.35
2022-10-18T03:02:57.862Z,19.35
2022-10-18T03:04:00.699Z,19.35
2022-10-18T03:05:03.748Z,19.35
2022-10-18T03:06:06.727Z,19.36
2022-10-18T03:07:09.663Z,19.36
2022-10-18T03:08:12.609Z,19.36
2022-10-18T03:09:15.433Z,19.36
2022-10-18T03:10:18.278Z,19.36
2022-10-18T03:11:21.181Z,19.36
2022-10-18T03:12:24.002Z,19.35
2022-10-18T03:13:26.950Z,19.34
2022-10-18T03:14:29.750Z,19.33
2022-10-18T03:15:32.707Z,19.33
2022-10-18T03:16:35.627Z,19.31
2022-10-18T03:17:38.372Z,19.30
2022-10-18T03:18:41.389Z,19.30
2022-10-18T03:19:44.241Z,19.30
2022-10-18T03:20:47.138Z,19.28
2022-10-18T03:21:50.077Z,19.28
2022-10-18T03:22:52.895Z,19.28
2022-10-18T03:23:56.158Z,19.26
2022-10-18T03:24:58.911Z,19.25
2022-10-18T03:26:02.237Z,19.24
2022-10-18T03:27:05.200Z,19.24
2022-10-18T03:28:08.516Z,19.23
2022-10-18T03:29:11.476Z,19.23
2022-10-18T03:30:14.317Z,19.21
2022-10-18T03:31:17.365Z,19.20
2022-10-18T03:32:20.408Z,19.20
2022-10-18T03:33:23.174Z,19.20
2022-10-18T03:34:25.995Z,19.20
2022-10-18T03:35:28.814Z,19.20
2022-10-18T03:36:33.628Z,19.20
2022-10-18T03:37:36.568Z,19.19
2022-10-18T03:38:39.405Z,19.18
2022-10-18T03:39:42.315Z,19.19
2022-10-18T03:40:45.167Z,19.18
2022-10-18T03:41:48.077Z,19.17
2022-10-18T03:42:50.984Z,19.16
2022-10-18T03:43:53.762Z,19.15
2022-10-18T03:44:56.627Z,19.15
2022-10-18T03:45:59.589Z,19.15
2022-10-18T03:47:02.481Z,19.15
2022-10-18T03:48:05.446Z,19.15
2022-10-18T03:49:08.297Z,19.15
2022-10-18T03:50:11.101Z,19.14
2022-10-18T03:51:13.950Z,19.14
2022-10-18T03:52:16.800Z,19.14
2022-10-18T03:53:19.745Z,19.14
2022-10-18T03:54:22.599Z,19.13
2022-10-18T03:55:25.432Z,19.13
2022-10-18T03:56:28.231Z,19.14
2022-10-18T03:57:31.246Z,19.14
2022-10-18T03:58:34.894Z,19.15
2022-10-18T03:59:37.697Z,19.15
2022-10-18T04:00:40.562Z,19.13
2022-10-18T04:01:43.407Z,19.12
2022-10-18T04:02:46.476Z,19.11
2022-10-18T04:03:49.414Z,19.10
2022-10-18T04:04:52.637Z,19.09
2022-10-18T04:05:55.589Z,19.09
2022-10-18T04:06:58.510Z,19.09
2022-10-18T04:08:01.358Z,19.10
2022-10-18T04:09:07.865Z,19.09
2022-10-18T04:10:13.123Z,19.09
2022-10-18T04:11:16.036Z,19.08
2022-10-18T04:12:19.015Z,19.09
2022-10-18T04:13:21.930Z,19.08
2022-10-18T04:14:24.968Z,19.09
2022-10-18T04:15:27.717Z,19.07
2022-10-18T04:16:30.758Z,19.06
2022-10-18T04:17:34.087Z,19.04
2022-10-18T04:18:37.186Z,19.05
2022-10-18T04:19:41.066Z,19.04
2022-10-18T04:20:43.964Z,19.03
2022-10-18T04:21:46.757Z,19.04
2022-10-18T04:22:49.884Z,19.04
2022-10-18T04:23:52.710Z,19.03
2022-10-18T04:24:56.911Z,19.03
2022-10-18T04:25:59.639Z,19.03
2022-10-18T04:27:02.487Z,19.03
2022-10-18T04:28:05.347Z,19.01
2022-10-18T04:29:08.230Z,19.01
2022-10-18T04:30:11.335Z,19.01
2022-10-18T04:31:14.278Z,19.00
2022-10-18T04:32:17.072Z,19.01
2022-10-18T04:33:20.179Z,19.00
2022-10-18T04:34:23.059Z,18.98
2022-10-18T04:35:26.159Z,18.97
2022-10-18T04:36:28.957Z,18.96
2022-10-18T04:37:32.233Z,18.96
2022-10-18T04:38:35.656Z,18.95
2022-10-18T04:39:38.479Z,18.95
2022-10-18T04:40:41.387Z,18.95
2022-10-18T04:41:44.206Z,18.94
2022-10-18T04:42:47.439Z,18.95
2022-10-18T04:43:50.179Z,18.94
2022-10-18T04:44:53.025Z,18.94
2022-10-18T04:45:55.953Z,18.94
2022-10-18T04:46:58.751Z,18.94
2022-10-18T04:48:01.945Z,18.92
2022-10-18T04:49:04.697Z,18.92
2022-10-18T04:50:07.664Z,18.91
2022-10-18T04:51:10.790Z,18.89
2022-10-18T04:52:13.622Z,18.89
2022-10-18T04:53:17.063Z,18.88
2022-10-18T04:54:21.046Z,18.86
2022-10-18T04:55:25.660Z,18.84
2022-10-18T04:56:28.745Z,18.84
2022-10-18T04:57:31.801Z,18.82
2022-10-18T04:58:34.943Z,18.82
2022-10-18T04:59:37.754Z,18.82
2022-10-18T05:00:40.646Z,18.82
2022-10-18T05:01:43.749Z,18.81
2022-10-18T05:02:46.587Z,18.80
2022-10-18T05:03:52.315Z,18.81
2022-10-18T05:04:55.122Z,18.81
2022-10-18T05:06:01.745Z,18.80
2022-10-18T05:07:06.703Z,18.79
2022-10-18T05:08:09.585Z,18.80
2022-10-18T05:09:12.879Z,18.80
2022-10-18T05:10:15.894Z,18.80
2022-10-18T05:11:18.769Z,18.80
2022-10-18T05:12:22.383Z,18.81
2022-10-18T05:13:25.327Z,18.81
2022-10-18T05:14:28.114Z,18.81
2022-10-18T05:15:30.888Z,18.80
2022-10-18T05:16:33.772Z,18.80
2022-10-18T05:17:36.775Z,18.79
2022-10-18T05:18:39.548Z,18.78
2022-10-18T05:19:42.522Z,18.77
2022-10-18T05:20:45.378Z,18.76
2022-10-18T05:21:48.222Z,18.76
2022-10-18T05:22:51.225Z,18.75
2022-10-18T05:23:57.171Z,18.74
2022-10-18T05:25:00.081Z,18.74
2022-10-18T05:26:04.447Z,18.73
2022-10-18T05:27:07.270Z,18.73
2022-10-18T05:28:10.770Z,18.73
2022-10-18T05:29:24.327Z,18.72
2022-10-18T05:30:27.452Z,18.72
2022-10-18T05:31:30.297Z,18.71
2022-10-18T05:32:33.453Z,18.72
2022-10-18T05:33:36.793Z,18.73
2022-10-18T05:34:39.633Z,18.73
2022-10-18T05:35:42.522Z,18.74
2022-10-18T05:36:45.318Z,18.75
2022-10-18T05:37:48.371Z,18.76
2022-10-18T05:38:52.788Z,18.76
2022-10-18T05:39:55.582Z,18.77
2022-10-18T05:40:59.093Z,18.77
2022-10-18T05:42:02.448Z,18.76
2022-10-18T05:43:05.443Z,18.76
2022-10-18T05:44:08.315Z,18.76
2022-10-18T05:45:11.135Z,18.78
2022-10-18T05:46:15.723Z,18.78
2022-10-18T05:47:18.796Z,18.79
2022-10-18T05:48:21.659Z,18.80
2022-10-18T05:49:24.527Z,18.81
2022-10-18T05:50:27.460Z,18.82
2022-10-18T05:51:30.346Z,18.83
2022-10-18T05:52:33.515Z,18.85
2022-10-18T05:53:37.780Z,18.85
2022-10-18T05:54:41.372Z,18.86
2022-10-18T05:55:44.216Z,18.87
2022-10-18T05:56:47.034Z,18.87
2022-10-18T05:57:50.541Z,18.87
2022-10-18T05:58:53.332Z,18.86
2022-10-18T05:59:56.347Z,18.86
2022-10-18T06:01:00.900Z,18.85
2022-10-18T06:02:03.924Z,18.85
2022-10-18T06:03:06.686Z,18.84
2022-10-18T06:04:12.592Z,18.83
2022-10-18T06:05:15.729Z,18.82
2022-10-18T06:06:18.694Z,18.83
2022-10-18T06:07:21.548Z,18.82
2022-10-18T06:08:24.340Z,18.82
2022-10-18T06:09:28.712Z,18.82
2022-10-18T06:10:31.596Z,18.82
2022-10-18T06:11:35.312Z,18.83
2022-10-18T06:12:38.211Z,18.83
2022-10-18T06:13:42.699Z,18.84
2022-10-18T06:14:45.523Z,18.85
2022-10-18T06:15:48.744Z,18.85
2022-10-18T06:16:51.533Z,18.85
2022-10-18T06:17:54.691Z,18.86
2022-10-18T06:18:57.896Z,18.84
2022-10-18T06:20:00.815Z,18.84
2022-10-18T06:21:04.066Z,18.83
2022-10-18T06:22:06.994Z,18.84
2022-10-18T06:23:09.823Z,18.84
2022-10-18T06:24:12.690Z,18.84
2022-10-18T06:25:15.655Z,18.84
2022-10-18T06:26:18.706Z,18.84
2022-10-18T06:27:21.460Z,18.83
2022-10-18T06:28:24.295Z,18.81
2022-10-18T06:29:27.104Z,18.82
2022-10-18T06:30:30.466Z,18.82
2022-10-18T06:31:33.460Z,18.83
2022-10-18T06:32:36.244Z,18.83
2022-10-18T06:33:39.536Z,18.84
2022-10-18T06:34:42.374Z,18.84
2022-10-18T06:35:54.248Z,18.85
2022-10-18T06:36:58.861Z,18.87
2022-10-18T06:38:01.707Z,18.86
2022-10-18T06:39:04.665Z,18.87
2022-10-18T06:40:07.723Z,18.87
2022-10-18T06:41:10.824Z,18.88
2022-10-18T06:42:13.844Z,18.89
2022-10-18T06:43:21.071Z,18.90
2022-10-18T06:44:24.314Z,18.89
2022-10-18T06:45:27.099Z,18.89
2022-10-18T06:46:29.923Z,18.90
2022-10-18T06:47:32.876Z,18.91
2022-10-18T06:48:36.408Z,18.92
2022-10-18T06:49:39.359Z,18.93
2022-10-18T06:50:42.110Z,18.94
2022-10-18T06:51:45.264Z,18.96
2022-10-18T06:52:49.569Z,18.97
2022-10-18T06:54:06.087Z,18.97
2022-10-18T06:55:15.239Z,18.98
2022-10-18T06:56:18.091Z,18.98
2022-10-18T06:57:21.618Z,18.98
2022-10-18T06:58:24.515Z,18.98
2022-10-18T06:59:30.368Z,18.99
2022-10-18T07:00:34.220Z,19.00
2022-10-18T07:01:37.099Z,19.00
2022-10-18T07:02:41.709Z,19.01
2022-10-18T07:03:45.756Z,19.01
2022-10-18T07:04:48.631Z,19.03
2022-10-18T07:05:51.747Z,19.03
2022-10-18T07:06:54.793Z,19.03
2022-10-18T07:07:58.039Z,19.03
2022-10-18T07:09:02.964Z,19.03
2022-10-18T07:10:06.643Z,19.02
2022-10-18T07:11:14.028Z,19.03
2022-10-18T07:12:17.847Z,19.03
2022-10-18T07:13:32.063Z,19.03
2022-10-18T07:14:35.766Z,19.03
2022-10-18T07:15:38.779Z,19.03
2022-10-18T07:16:41.993Z,19.04
2022-10-18T07:17:48.173Z,19.05
2022-10-18T07:18:51.479Z,19.06
2022-10-18T07:19:54.330Z,19.08
2022-10-18T07:20:57.233Z,19.09
2022-10-18T07:22:00.026Z,19.12
2022-10-18T07:23:02.813Z,19.14
2022-10-18T07:24:05.884Z,19.17
2022-10-18T07:25:09.011Z,19.18
2022-10-18T07:26:15.081Z,19.20
2022-10-18T07:27:18.110Z,19.23
2022-10-18T07:28:20.982Z,19.25
2022-10-18T07:29:23.979Z,19.28
2022-10-18T07:30:26.968Z,19.29
2022-10-18T07:31:30.198Z,19.31
2022-10-18T07:32:33.169Z,19.32
2022-10-18T07:33:36.975Z,19.32
2022-10-18T07:34:39.981Z,19.30
2022-10-18T07:35:42.949Z,19.30
2022-10-18T07:36:45.858Z,19.30
2022-10-18T07:37:48.807Z,19.31
2022-10-18T07:38:52.033Z,19.33
2022-10-18T07:39:54.988Z,19.35
2022-10-18T07:40:58.758Z,19.37
2022-10-18T07:42:01.565Z,19.39
2022-10-18T07:43:05.019Z,19.41
2022-10-18T07:44:08.250Z,19.42
2022-10-18T07:45:12.709Z,19.42
2022-10-18T07:46:16.039Z,19.42
2022-10-18T07:47:19.160Z,19.42
2022-10-18T07:48:22.143Z,19.43
2022-10-18T07:49:24.904Z,19.43
2022-10-18T07:50:28.535Z,19.43
2022-10-18T07:51:32.825Z,19.43
2022-10-18T07:52:35.692Z,19.44
2022-10-18T07:53:38.876Z,19.45
2022-10-18T07:54:41.971Z,19.46
2022-10-18T07:55:44.832Z,19.47
2022-10-18T07:56:47.776Z,19.47
2022-10-18T07:57:50.570Z,19.48
2022-10-18T07:58:55.453Z,19.49
2022-10-18T07:59:58.246Z,19.50
2022-10-18T08:01:05.369Z,19.49
2022-10-18T08:02:09.339Z,19.49
2022-10-18T08:03:12.208Z,19.47
2022-10-18T08:04:16.468Z,19.46
2022-10-18T08:05:19.604Z,19.45
2022-10-18T08:06:23.679Z,19.44
2022-10-18T08:07:26.742Z,19.42
2022-10-18T08:08:29.644Z,19.40
2022-10-18T08:09:32.598Z,19.38
2022-10-18T08:10:35.762Z,19.37
2022-10-18T08:11:38.895Z,19.36
2022-10-18T08:12:41.880Z,19.35
2022-10-18T08:13:44.743Z,19.34
2022-10-18T08:14:47.627Z,19.34
2022-10-18T08:15:50.486Z,19.34
2022-10-18T08:16:53.444Z,19.34
2022-10-18T08:17:56.380Z,19.34
2022-10-18T08:18:59.190Z,19.34
2022-10-18T08:20:12.131Z,19.32
2022-10-18T08:21:24.852Z,19.31
2022-10-18T08:22:27.802Z,19.30
2022-10-18T08:23:30.948Z,19.30
2022-10-18T08:24:33.755Z,19.29
2022-10-18T08:26:44.482Z,19.26
2022-10-18T08:27:47.331Z,19.26
2022-10-18T08:28:58.310Z,19.27
2022-10-18T08:30:13.114Z,19.30
2022-10-18T08:31:20.286Z,19.31
2022-10-18T08:32:23.079Z,19.33
2022-10-18T08:33:25.933Z,19.34
2022-10-18T08:34:29.052Z,19.33
2022-10-18T08:35:31.975Z,19.32
2022-10-18T08:36:35.093Z,19.30
2022-10-18T08:37:38.289Z,19.30
2022-10-18T08:38:42.397Z,19.30
2022-10-18T08:39:45.406Z,19.32
2022-10-18T08:40:48.832Z,19.33
2022-10-18T08:41:54.703Z,19.35
2022-10-18T08:43:07.961Z,19.38
2022-10-18T08:44:16.858Z,19.39
2022-10-18T08:45:37.311Z,19.41
2022-10-18T08:46:45.449Z,19.43
2022-10-18T08:47:49.898Z,19.45
2022-10-18T08:48:55.074Z,19.47
2022-10-18T08:50:12.332Z,19.50
2022-10-18T08:51:35.354Z,19.53
2022-10-18T08:53:59.522Z,19.56
2022-10-18T08:55:12.212Z,19.59
2022-10-18T08:56:15.500Z,19.61
2022-10-18T08:57:19.134Z,19.65
2022-10-18T08:58:23.341Z,19.69
2022-10-18T08:59:29.030Z,19.74
2022-10-18T09:00:34.887Z,19.79
2022-10-18T09:01:37.704Z,19.82
2022-10-18T09:02:58.988Z,19.85
2022-10-18T09:04:04.921Z,19.91
2022-10-18T09:05:14.358Z,19.92
2022-10-18T09:06:22.698Z,19.96
2022-10-18T09:07:45.127Z,20.01
2022-10-18T09:08:58.847Z,20.06
2022-10-18T09:10:20.168Z,20.09
2022-10-18T09:11:29.063Z,20.13
2022-10-18T09:12:44.141Z,20.15
2022-10-18T09:13:53.070Z,20.19
2022-10-18T09:14:58.906Z,20.20
2022-10-18T09:16:02.927Z,20.21
2022-10-18T09:17:12.354Z,20.21
2022-10-18T09:18:17.686Z,20.22
2022-10-18T09:19:42.879Z,20.22
2022-10-18T09:20:55.337Z,20.21
2022-10-18T09:22:09.684Z,20.20
2022-10-18T09:23:12.687Z,20.20
2022-10-18T09:24:21.739Z,20.19
2022-10-18T09:25:27.553Z,20.21
2022-10-18T09:26:34.604Z,20.22
2022-10-18T09:27:54.253Z,20.23
2022-10-18T09:28:57.476Z,20.24
2022-10-18T09:30:00.305Z,20.26
2022-10-18T09:31:07.865Z,20.28
2022-10-18T09:32:29.854Z,20.29
2022-10-18T09:33:33.081Z,20.34
2022-10-18T09:34:54.841Z,20.38
2022-10-18T09:35:59.332Z,20.46
2022-10-18T09:37:02.329Z,20.52
2022-10-18T09:38:09.883Z,20.59
2022-10-18T09:39:18.547Z,20.65
2022-10-18T09:40:24.396Z,20.64
2022-10-18T09:41:27.154Z,20.56
2022-10-18T09:42:34.950Z,20.47
2022-10-18T09:43:40.726Z,20.36
2022-10-18T09:45:03.882Z,20.28
2022-10-18T09:46:07.239Z,20.20
2022-10-18T09:47:17.267Z,20.14
2022-10-18T09:48:33.484Z,20.08
2022-10-18T09:49:38.252Z,20.02
2022-10-18T09:50:43.933Z,20.04
2022-10-18T09:51:48.823Z,20.12
2022-10-18T09:52:56.400Z,20.20
2022-10-18T09:54:05.236Z,20.27
2022-10-18T09:55:24.027Z,20.35
2022-10-18T09:56:30.600Z,20.43
2022-10-18T09:57:49.781Z,20.51
2022-10-18T09:58:52.750Z,20.60
2022-10-18T09:59:56.138Z,20.66
2022-10-18T10:00:59.577Z,20.66
2022-10-18T10:02:02.469Z,20.62
2022-10-18T10:03:15.736Z,20.58
2022-10-18T10:04:18.549Z,20.55
2022-10-18T10:05:21.357Z,20.52
2022-10-18T10:06:27.758Z,20.51
2022-10-18T10:07:35.331Z,20.50
2022-10-18T10:08:42.791Z,20.49
2022-10-18T10:09:55.663Z,20.48
2022-10-18T10:10:58.491Z,20.48
2022-10-18T10:12:02.370Z,20.47
2022-10-18T10:13:22.752Z,20.45
2022-10-18T10:14:27.492Z,20.42
2022-10-18T10:15:35.331Z,20.39
2022-10-18T10:16:43.789Z,20.34
2022-10-18T10:17:54.258Z,20.29
2022-10-18T10:18:57.109Z,20.24
2022-10-18T10:20:17.587Z,20.19
2022-10-18T10:21:20.826Z,20.13
2022-10-18T10:22:28.361Z,20.08
2022-10-18T10:23:35.641Z,20.02
2022-10-18T10:24:51.392Z,19.97
2022-10-18T10:26:13.150Z,19.93
2022-10-18T10:27:22.003Z,19.90
2022-10-18T10:28:37.045Z,19.88
2022-10-18T10:29:46.054Z,19.88
2022-10-18T10:30:48.975Z,19.92
2022-10-18T10:32:04.239Z,20.02
2022-10-18T10:33:26.912Z,20.15
2022-10-18T10:34:30.722Z,20.26
2022-10-18T10:35:53.466Z,20.33
2022-10-18T10:36:57.216Z,20.31
2022-10-18T10:38:00.374Z,20.23
2022-10-18T10:39:05.098Z,20.14
2022-10-18T10:40:19.358Z,20.06
2022-10-18T10:41:24.255Z,19.96
2022-10-18T10:42:27.318Z,19.88
2022-10-18T10:43:38.233Z,19.81
2022-10-18T10:44:52.512Z,19.75
2022-10-18T10:46:15.657Z,19.70
2022-10-18T10:47:47.366Z,19.64
2022-10-18T10:48:50.318Z,19.60
2022-10-18T10:49:56.225Z,19.57
2022-10-18T10:51:09.291Z,19.56
2022-10-18T10:52:28.065Z,19.53
2022-10-18T10:53:41.189Z,19.49
2022-10-18T10:54:50.399Z,19.47
2022-10-18T10:55:54.881Z,19.45
2022-10-18T10:57:17.832Z,19.43
2022-10-18T10:58:21.618Z,19.40
2022-10-18T10:59:28.966Z,19.37
2022-10-18T11:00:43.168Z,19.33
2022-10-18T11:01:49.797Z,19.28
2022-10-18T11:03:05.845Z,19.25
2022-10-18T11:04:29.925Z,19.22
2022-10-18T11:05:41.846Z,19.19
2022-10-18T11:06:50.603Z,19.17
2022-10-18T11:07:55.668Z,19.16
2022-10-18T11:09:00.108Z,19.15
2022-10-18T11:10:11.185Z,19.13
2022-10-18T11:11:15.313Z,19.10
2022-10-18T11:12:28.438Z,19.07
2022-10-18T11:13:31.287Z,19.04
2022-10-18T11:14:38.845Z,19.02
2022-10-18T11:15:46.106Z,19.01
2022-10-18T11:16:49.108Z,18.98
2022-10-18T11:18:10.849Z,18.97
2022-10-18T11:19:32.727Z,18.94
2022-10-18T11:20:38.919Z,18.94
2022-10-18T11:21:42.446Z,18.92
2022-10-18T11:22:51.107Z,18.91
2022-10-18T11:23:54.347Z,18.91
2022-10-18T11:24:57.257Z,18.90
2022-10-18T11:26:12.137Z,18.90
2022-10-18T11:27:18.178Z,18.90
2022-10-18T11:28:32.388Z,18.90
2022-10-18T11:29:50.589Z,18.95
2022-10-18T11:31:11.844Z,19.10
2022-10-18T11:32:24.666Z,19.30
2022-10-18T11:33:50.070Z,19.43
2022-10-18T11:34:50.611Z,19.57
2022-10-18T11:36:00.234Z,19.65
2022-10-18T11:37:31.060Z,19.74
2022-10-18T11:38:58.303Z,19.84
2022-10-18T11:40:01.217Z,19.93
2022-10-18T11:41:15.638Z,19.98
2022-10-18T11:42:24.486Z,20.02
2022-10-18T11:43:57.109Z,19.95
2022-10-18T11:45:06.486Z,19.79
2022-10-18T11:46:11.672Z,19.66
2022-10-18T11:47:39.608Z,19.56
2022-10-18T11:49:01.398Z,19.43
2022-10-18T11:50:08.731Z,19.31
2022-10-18T11:51:38.888Z,19.22
2022-10-18T11:53:13.154Z,19.12
2022-10-18T11:54:42.043Z,19.05
2022-10-18T11:55:57.686Z,18.98
2022-10-18T11:57:01.944Z,18.94
2022-10-18T11:58:04.735Z,18.90
2022-10-18T11:59:07.725Z,18.87
2022-10-18T12:00:22.358Z,18.84
2022-10-18T12:01:41.133Z,18.80
2022-10-18T12:02:53.560Z,18.75
2022-10-18T12:03:56.344Z,18.72
2022-10-18T12:06:26.587Z,18.57
2022-10-18T12:07:33.221Z,18.51
2022-10-18T12:08:38.804Z,18.46
2022-10-18T12:09:43.501Z,18.42
2022-10-18T12:11:05.895Z,18.37
2022-10-18T12:12:14.615Z,18.32
2022-10-18T12:13:23.029Z,18.27
2022-10-18T12:14:42.557Z,18.21
2022-10-18T12:15:45.616Z,18.14
2022-10-18T12:16:52.298Z,18.09
2022-10-18T12:17:59.949Z,18.03
2022-10-18T12:19:05.078Z,17.99
2022-10-18T12:20:12.436Z,17.94
2022-10-18T12:21:21.903Z,17.90
2022-10-18T12:22:35.339Z,17.85
2022-10-18T12:23:42.323Z,17.80
2022-10-18T12:24:45.436Z,17.76
2022-10-18T12:25:53.823Z,17.74
2022-10-18T12:27:01.285Z,17.71
2022-10-18T12:28:07.027Z,17.75
2022-10-18T12:29:12.785Z,17.84
2022-10-18T12:30:42.465Z,17.95
2022-10-18T12:31:51.173Z,18.09
2022-10-18T12:33:27.191Z,18.20
2022-10-18T12:34:39.212Z,18.31
2022-10-18T12:36:02.472Z,18.38
2022-10-18T12:37:05.268Z,18.46
2022-10-18T12:38:23.838Z,18.50
2022-10-18T12:39:43.508Z,18.56
2022-10-18T12:40:52.554Z,18.62
2022-10-18T12:41:56.453Z,18.66
2022-10-18T12:42:59.427Z,18.69
2022-10-18T12:44:02.239Z,18.72
2022-10-18T12:45:14.007Z,18.75
2022-10-18T12:46:16.930Z,18.78
2022-10-18T12:47:24.985Z,18.80
2022-10-18T12:48:42.687Z,18.82
2022-10-18T12:49:55.323Z,18.84
2022-10-18T12:51:14.982Z,18.85
2022-10-18T12:52:29.000Z,18.86
2022-10-18T12:53:32.584Z,18.88
2022-10-18T12:54:39.380Z,18.87
2022-10-18T12:55:47.021Z,18.86
2022-10-18T12:56:50.911Z,18.86
2022-10-18T12:57:53.802Z,18.85
2022-10-18T12:59:18.022Z,18.85
2022-10-18T13:00:29.674Z,18.86
2022-10-18T13:01:50.990Z,18.86
2022-10-18T13:03:09.217Z,18.86
2022-10-18T13:04:32.464Z,18.86
2022-10-18T13:05:56.015Z,18.86
2022-10-18T13:07:05.480Z,18.85
2022-10-18T13:08:23.372Z,18.85
2022-10-18T13:09:27.740Z,18.84
2022-10-18T13:10:35.974Z,18.85
2022-10-18T13:11:38.860Z,18.86
2022-10-18T13:12:57.060Z,18.87
2022-10-18T13:14:05.845Z,18.88
2022-10-18T13:15:29.198Z,18.88
2022-10-18T13:16:43.096Z,18.89
2022-10-18T13:18:12.215Z,18.88
2022-10-18T13:19:15.032Z,18.88
2022-10-18T13:20:41.230Z,18.87
2022-10-18T13:21:47.023Z,18.85
2022-10-18T13:23:22.182Z,18.85
2022-10-18T13:24:31.167Z,18.84
2022-10-18T13:25:34.211Z,18.83
2022-10-18T13:26:59.279Z,18.83
2022-10-18T13:28:27.467Z,18.83
2022-10-18T13:29:49.320Z,18.83
2022-10-18T13:30:57.787Z,18.81
2022-10-18T13:32:18.963Z,18.81
2022-10-18T13:33:41.674Z,18.80
2022-10-18T13:34:44.765Z,18.81
2022-10-18T13:35:52.721Z,18.81
2022-10-18T13:37:15.873Z,18.80
2022-10-18T13:38:37.547Z,18.79
2022-10-18T13:39:40.392Z,18.76
2022-10-18T13:40:43.237Z,18.74
2022-10-18T13:41:46.065Z,18.72
2022-10-18T13:42:52.003Z,18.71
2022-10-18T13:44:11.108Z,18.70
2022-10-18T13:45:32.130Z,18.70
2022-10-18T13:46:34.947Z,18.70
2022-10-18T13:47:38.168Z,18.70
2022-10-18T13:48:41.422Z,18.69
2022-10-18T13:50:07.562Z,18.67
2022-10-18T13:51:36.505Z,18.67
2022-10-18T13:52:57.368Z,18.66
2022-10-18T13:54:08.309Z,18.64
2022-10-18T13:55:20.108Z,18.62
2022-10-18T13:56:30.627Z,18.58
2022-10-18T13:57:48.494Z,18.55
2022-10-18T13:59:14.402Z,18.54
2022-10-18T14:00:36.905Z,18.51
2022-10-18T14:01:52.045Z,18.50
2022-10-18T14:03:26.673Z,18.49
2022-10-18T14:05:10.603Z,18.47
2022-10-18T14:06:20.194Z,18.45
2022-10-18T14:07:25.956Z,18.43
2022-10-18T14:08:31.683Z,18.41
2022-10-18T14:09:44.879Z,18.39
2022-10-18T14:11:03.109Z,18.37
2022-10-18T14:12:26.678Z,18.36
2022-10-18T14:13:48.233Z,18.33
2022-10-18T14:14:51.107Z,18.32
2022-10-18T14:15:57.513Z,18.30
2022-10-18T14:17:17.635Z,18.31
2022-10-18T14:18:28.991Z,18.28
2022-10-18T14:19:39.142Z,18.27
2022-10-18T14:21:01.520Z,18.26
2022-10-18T14:22:18.848Z,18.24
2022-10-18T14:23:27.901Z,18.23
2022-10-18T14:24:31.430Z,18.21
2022-10-18T14:25:37.990Z,18.19
2022-10-18T14:26:40.970Z,18.18
2022-10-18T14:27:43.890Z,18.17
2022-10-18T14:29:01.670Z,18.16
2022-10-18T14:30:15.244Z,18.13
2022-10-18T14:31:19.642Z,18.11
2022-10-18T14:32:22.414Z,18.11